Time;durP1;ratioP1;P1;durP2;ratioP2;P2;SDS_P1;SDS_P2;PMS_P1;PMS_P2;Temp;Humidity;BMP_temperature;BMP_pressure;BME280_temperature;BME280_humidity;BME280_pressure;Samples;Min_cycle;Max_cycle;Signal;HPM_P1;HPM_P2
2021/07/14 00:01:05;;;;;;;5.67;3.30;;;13.80;99.90;;;;;;5090096;28;20676;-87
2021/07/14 00:03:33;;;;;;;3.50;3.20;;;13.70;99.90;;;;;;5090590;28;20628;-87
2021/07/14 00:06:00;;;;;;;4.00;3.60;;;13.70;99.90;;;;;;5089306;28;21195;-87
2021/07/14 00:08:27;;;;;;;4.93;3.90;;;13.70;99.90;;;;;;5090588;28;20632;-87
2021/07/14 00:10:54;;;;;;;4.50;2.90;;;13.60;99.90;;;;;;5090284;28;20665;-87
2021/07/14 00:13:30;;;;;;;4.40;3.17;;;13.70;99.90;;;;;;5084682;28;20659;-87
2021/07/14 00:24:12;;;;;;;3.23;2.90;;;13.70;99.90;;;;;;5091833;28;20691;-86
2021/07/14 00:26:39;;;;;;;3.60;3.30;;;13.70;99.90;;;;;;5094066;28;20981;-86
2021/07/14 00:29:11;;;;;;;3.50;3.20;;;13.70;99.90;;;;;;5089271;28;20640;-86
2021/07/14 00:31:41;;;;;;;4.83;3.20;;;13.70;99.90;;;;;;5094152;28;20719;-87
2021/07/14 00:34:08;;;;;;;4.87;3.40;;;13.60;99.90;;;;;;5094096;28;20684;-87
2021/07/14 00:36:35;;;;;;;6.07;3.57;;;13.60;99.90;;;;;;5093783;28;20604;-87
2021/07/14 00:39:02;;;;;;;3.53;3.20;;;13.60;99.90;;;;;;5094375;28;20653;-87
2021/07/14 00:41:29;;;;;;;3.87;3.40;;;13.50;99.90;;;;;;5094457;28;20660;-87
2021/07/14 00:43:56;;;;;;;2.80;2.60;;;13.40;99.90;;;;;;5074309;28;21225;-87
2021/07/14 00:46:25;;;;;;;3.40;3.00;;;13.40;99.90;;;;;;5073558;28;20627;-87
2021/07/14 00:48:54;;;;;;;8.10;3.27;;;13.40;99.90;;;;;;5073674;28;20609;-87
2021/07/14 00:51:21;;;;;;;4.60;3.90;;;13.40;99.90;;;;;;5073957;28;20621;-87
2021/07/14 00:53:48;;;;;;;3.77;3.33;;;13.40;99.90;;;;;;5104535;28;20638;-87
2021/07/14 00:56:15;;;;;;;3.90;3.43;;;13.50;99.90;;;;;;5102459;28;20620;-86
2021/07/14 00:58:43;;;;;;;5.67;5.07;;;13.50;99.90;;;;;;5088222;28;20681;-87
2021/07/14 01:01:10;;;;;;;4.13;3.43;;;13.50;99.90;;;;;;5093894;28;20601;-87
2021/07/14 01:03:46;;;;;;;4.07;3.70;;;13.50;99.90;;;;;;5093546;28;20650;-87
2021/07/14 01:06:28;;;;;;;5.80;3.43;;;13.50;99.90;;;;;;5093392;28;20615;-87
2021/07/14 01:09:01;;;;;;;6.37;3.40;;;13.60;99.90;;;;;;5094020;28;21156;-87
2021/07/14 01:11:36;;;;;;;3.30;2.80;;;13.60;99.90;;;;;;5093688;28;21278;-88
2021/07/14 01:14:10;;;;;;;4.07;3.10;;;13.60;99.90;;;;;;5087933;28;22634;-87
2021/07/14 01:16:44;;;;;;;3.00;2.80;;;13.60;99.90;;;;;;5093964;28;20619;-88
2021/07/14 01:19:25;;;;;;;3.80;3.50;;;13.60;99.90;;;;;;5094182;28;20631;-88
2021/07/14 01:21:59;;;;;;;3.77;3.47;;;13.70;99.90;;;;;;5098254;28;20632;-88
2021/07/14 01:24:33;;;;;;;5.90;4.00;;;13.80;99.90;;;;;;5096555;28;20640;-87
2021/07/14 01:27:10;;;;;;;4.83;4.37;;;13.90;99.90;;;;;;5109801;28;20722;-88
2021/07/14 01:29:45;;;;;;;5.17;4.77;;;13.90;99.90;;;;;;5088119;28;20664;-88
2021/07/14 01:32:15;;;;;;;12.70;5.60;;;13.90;99.90;;;;;;5105196;28;20747;-88
2021/07/14 01:34:51;;;;;;;4.60;4.00;;;13.90;99.90;;;;;;5113006;28;21188;-88
2021/07/14 01:37:22;;;;;;;4.27;3.97;;;13.90;99.90;;;;;;5113699;28;20653;-87
2021/07/14 01:39:52;;;;;;;4.63;3.80;;;13.90;99.90;;;;;;5109346;28;20631;-88
2021/07/14 01:42:28;;;;;;;5.47;4.40;;;13.80;99.90;;;;;;5093099;28;20625;-88
2021/07/14 01:44:59;;;;;;;5.13;4.23;;;13.90;99.90;;;;;;5087441;28;20750;-88
2021/07/14 01:47:28;;;;;;;5.13;4.30;;;14.00;99.90;;;;;;5092688;28;20626;-87
2021/07/14 01:49:58;;;;;;;4.33;4.00;;;14.00;99.90;;;;;;5092978;28;21198;-87
2021/07/14 01:52:32;;;;;;;4.13;3.70;;;13.90;99.90;;;;;;5093510;28;20681;-87
2021/07/14 01:55:04;;;;;;;3.93;3.50;;;13.90;99.90;;;;;;5092467;28;20642;-87
2021/07/14 01:57:36;;;;;;;5.73;3.83;;;14.00;99.90;;;;;;5102597;28;20615;-87
2021/07/14 02:00:07;;;;;;;4.40;4.10;;;14.10;99.90;;;;;;5112928;28;20646;-87
2021/07/14 02:02:37;;;;;;;4.40;3.97;;;14.10;99.90;;;;;;5112367;28;20655;-88
2021/07/14 02:05:07;;;;;;;4.30;4.00;;;14.00;99.90;;;;;;5112880;28;20610;-87
2021/07/14 02:07:36;;;;;;;3.83;3.50;;;14.10;99.90;;;;;;5112436;28;21227;-87
2021/07/14 02:10:05;;;;;;;4.63;4.10;;;14.10;99.90;;;;;;5113021;28;21218;-88
2021/07/14 02:12:38;;;;;;;4.40;4.00;;;14.10;99.90;;;;;;5107265;28;20984;-87
2021/07/14 02:15:08;;;;;;;4.93;4.53;;;14.10;99.90;;;;;;5112148;28;20644;-88
2021/07/14 02:17:40;;;;;;;4.97;3.73;;;14.10;99.90;;;;;;5113063;28;20615;-87
2021/07/14 02:20:12;;;;;;;5.33;4.10;;;14.00;99.90;;;;;;5112754;28;20704;-87
2021/07/14 02:22:40;;;;;;;4.43;4.03;;;14.10;99.90;;;;;;5112632;28;20617;-88
2021/07/14 02:25:10;;;;;;;4.53;4.07;;;14.10;99.90;;;;;;5112505;28;20630;-88
2021/07/14 02:27:40;;;;;;;3.80;3.50;;;14.10;99.90;;;;;;5107524;28;20654;-88
2021/07/14 02:30:16;;;;;;;4.30;3.77;;;14.00;99.90;;;;;;5112781;28;20637;-87
2021/07/14 02:32:44;;;;;;;4.47;4.07;;;13.90;99.90;;;;;;5094192;28;20615;-87
2021/07/14 02:35:14;;;;;;;4.13;3.70;;;13.80;99.90;;;;;;5091384;28;20636;-87
2021/07/14 02:37:51;;;;;;;5.50;4.07;;;13.90;99.90;;;;;;5092195;28;20655;-87
2021/07/14 02:40:26;;;;;;;3.73;3.37;;;13.90;99.90;;;;;;5092126;28;20683;-87
2021/07/14 02:42:59;;;;;;;3.90;3.60;;;14.00;99.90;;;;;;5091712;28;20623;-87
2021/07/14 02:45:29;;;;;;;4.90;3.80;;;13.90;99.90;;;;;;5091551;28;20620;-86
2021/07/14 02:47:59;;;;;;;17.20;3.80;;;14.00;99.90;;;;;;5090616;28;20634;-87
2021/07/14 02:50:31;;;;;;;4.47;4.10;;;14.00;99.90;;;;;;5091796;28;20660;-86
2021/07/14 02:53:03;;;;;;;3.80;3.50;;;14.00;99.90;;;;;;5092019;28;20604;-86
2021/07/14 02:55:33;;;;;;;5.43;4.10;;;14.00;99.90;;;;;;5091357;28;20675;-86
2021/07/14 02:58:02;;;;;;;3.93;3.60;;;14.00;99.90;;;;;;5091615;28;20619;-87
2021/07/14 03:00:31;;;;;;;4.33;4.03;;;13.90;99.90;;;;;;5091499;28;20716;-87
2021/07/14 03:03:00;;;;;;;5.23;4.30;;;13.90;99.90;;;;;;5086702;28;21049;-87
2021/07/14 03:05:29;;;;;;;4.33;4.00;;;13.90;99.90;;;;;;5091172;28;20600;-87
2021/07/14 03:07:58;;;;;;;4.70;4.30;;;14.00;99.90;;;;;;5090846;28;20611;-87
2021/07/14 03:10:26;;;;;;;5.10;4.70;;;14.10;99.90;;;;;;5091628;28;20620;-86
2021/07/14 03:12:57;;;;;;;11.17;5.33;;;14.20;99.90;;;;;;5090802;28;21184;-87
2021/07/14 03:15:26;;;;;;;5.03;4.63;;;14.20;99.90;;;;;;5091510;28;21077;-86
2021/07/14 03:17:55;;;;;;;4.50;4.10;;;14.10;99.90;;;;;;5087514;28;20632;-87
2021/07/14 03:20:23;;;;;;;5.27;4.87;;;14.10;99.90;;;;;;5090152;28;20666;-87
2021/07/14 03:22:52;;;;;;;8.37;4.73;;;14.00;99.90;;;;;;5091023;28;20624;-88
2021/07/14 03:25:20;;;;;;;4.60;4.20;;;14.10;99.90;;;;;;5090643;28;20612;-89
2021/07/14 03:27:50;;;;;;;5.20;4.80;;;14.20;99.90;;;;;;5091182;28;20620;-88
2021/07/14 03:30:19;;;;;;;5.07;4.60;;;14.20;99.90;;;;;;5091182;28;20616;-87
2021/07/14 03:32:47;;;;;;;5.67;4.10;;;14.20;99.90;;;;;;5107672;28;20608;-88
2021/07/14 03:35:15;;;;;;;6.40;4.83;;;14.10;99.90;;;;;;5108564;28;21314;-88
2021/07/14 03:37:44;;;;;;;5.80;4.57;;;14.20;99.90;;;;;;5111082;28;20643;-88
2021/07/14 03:40:13;;;;;;;5.40;4.70;;;14.20;99.90;;;;;;5111236;28;21337;-88
2021/07/14 03:42:41;;;;;;;4.43;4.13;;;14.10;99.90;;;;;;5111005;28;20600;-87
2021/07/14 03:45:10;;;;;;;5.90;3.90;;;14.10;99.90;;;;;;5111190;28;21241;-88
2021/07/14 03:47:40;;;;;;;5.00;4.60;;;14.00;99.90;;;;;;5110934;28;20615;-88
2021/07/14 03:50:09;;;;;;;5.00;4.27;;;14.00;99.90;;;;;;5111250;28;20599;-88
2021/07/14 03:52:37;;;;;;;5.73;4.97;;;14.00;99.90;;;;;;5110961;28;20615;-87
2021/07/14 03:55:07;;;;;;;4.87;4.40;;;14.10;99.90;;;;;;5109332;28;20720;-88
2021/07/14 03:57:34;;;;;;;5.67;3.77;;;14.00;99.90;;;;;;5090788;28;21480;-88
2021/07/14 04:00:01;;;;;;;10.10;4.63;;;14.00;99.90;;;;;;5107084;28;20668;-88
2021/07/14 04:02:30;;;;;;;9.17;4.83;;;14.00;99.90;;;;;;5111168;28;20607;-87
2021/07/14 04:04:57;;;;;;;4.00;3.70;;;14.10;99.90;;;;;;5110109;28;20608;-88
2021/07/14 04:07:28;;;;;;;6.93;4.20;;;14.10;99.90;;;;;;5110684;28;20657;-88
2021/07/14 04:09:57;;;;;;;4.20;3.90;;;14.30;99.90;;;;;;5109477;28;20653;-88
2021/07/14 04:12:27;;;;;;;5.10;4.10;;;14.40;99.90;;;;;;5109145;28;20619;-87
2021/07/14 04:14:54;;;;;;;6.30;4.13;;;14.40;99.90;;;;;;5108519;28;20642;-87
2021/07/14 04:17:21;;;;;;;4.03;3.63;;;14.40;99.90;;;;;;5108658;28;21441;-88
2021/07/14 04:19:48;;;;;;;4.30;4.00;;;14.40;99.90;;;;;;5109095;28;20650;-88
2021/07/14 04:22:15;;;;;;;5.40;4.07;;;14.30;99.90;;;;;;5109473;28;21176;-88
2021/07/14 04:24:43;;;;;;;7.80;3.87;;;14.30;99.90;;;;;;5108521;28;20635;-87
2021/07/14 04:27:11;;;;;;;4.50;4.10;;;14.30;99.90;;;;;;5110842;28;20614;-88
2021/07/14 04:29:38;;;;;;;4.77;4.27;;;14.30;99.90;;;;;;5110702;28;20615;-88
2021/07/14 04:32:06;;;;;;;5.93;4.27;;;14.30;99.90;;;;;;5110461;28;20608;-88
2021/07/14 04:34:33;;;;;;;4.13;3.73;;;14.30;99.90;;;;;;5110610;28;20616;-88
2021/07/14 04:37:00;;;;;;;4.70;4.27;;;14.40;99.90;;;;;;5110495;28;21269;-88
2021/07/14 04:39:26;;;;;;;5.10;4.70;;;14.40;99.90;;;;;;5110613;28;20623;-87
2021/07/14 04:41:55;;;;;;;6.23;4.67;;;14.30;99.90;;;;;;5110760;28;20981;-88
2021/07/14 04:44:31;;;;;;;4.40;4.00;;;14.40;99.90;;;;;;5109946;28;20618;-88
2021/07/14 04:46:58;;;;;;;4.40;4.10;;;14.40;99.90;;;;;;5110646;28;20611;-87
2021/07/14 04:49:25;;;;;;;4.30;3.90;;;14.40;99.90;;;;;;5110664;28;20604;-87
2021/07/14 04:51:52;;;;;;;4.63;3.80;;;14.40;99.90;;;;;;5110669;28;20607;-88
2021/07/14 04:54:19;;;;;;;4.13;3.83;;;14.40;99.90;;;;;;5109949;28;20607;-87
2021/07/14 04:56:49;;;;;;;4.40;4.00;;;14.30;99.90;;;;;;5094562;28;20659;-88
2021/07/14 04:59:18;;;;;;;4.63;4.10;;;14.30;99.90;;;;;;5089895;28;20608;-88
2021/07/14 05:01:46;;;;;;;4.60;4.20;;;14.30;99.90;;;;;;5090283;28;20624;-87
2021/07/14 05:04:13;;;;;;;4.20;3.80;;;14.50;99.90;;;;;;5089849;28;21005;-87
2021/07/14 05:06:41;;;;;;;5.43;4.50;;;14.40;99.90;;;;;;5088867;28;20608;-88
2021/07/14 05:09:08;;;;;;;4.67;4.27;;;14.40;99.90;;;;;;5090035;28;20611;-87
2021/07/14 05:11:35;;;;;;;6.60;4.77;;;14.30;99.90;;;;;;5091607;28;20627;-88
2021/07/14 05:14:02;;;;;;;6.40;3.87;;;14.40;99.90;;;;;;5093653;28;20674;-87
2021/07/14 05:16:30;;;;;;;7.77;4.70;;;14.50;99.90;;;;;;5093194;28;20640;-87
2021/07/14 05:18:57;;;;;;;4.97;4.47;;;14.50;99.90;;;;;;5093785;28;20628;-88
2021/07/14 05:21:24;;;;;;;5.43;4.37;;;14.50;99.90;;;;;;5093452;28;20620;-87
2021/07/14 05:23:51;;;;;;;4.30;3.90;;;14.60;99.90;;;;;;5092785;28;21156;-88
2021/07/14 05:26:18;;;;;;;4.20;3.90;;;14.60;99.90;;;;;;5092193;28;20613;-88
2021/07/14 05:28:46;;;;;;;4.20;3.87;;;14.60;99.90;;;;;;5092672;28;21168;-88
2021/07/14 05:31:13;;;;;;;3.97;3.67;;;14.60;99.90;;;;;;5098379;28;20629;-87
2021/07/14 05:33:42;;;;;;;4.83;4.23;;;14.60;99.90;;;;;;5112718;28;20615;-88
2021/07/14 05:36:11;;;;;;;4.93;4.20;;;14.40;99.90;;;;;;5112827;28;20711;-88
2021/07/14 05:38:38;;;;;;;5.13;4.73;;;14.30;99.90;;;;;;5112454;28;20611;-88
2021/07/14 05:41:05;;;;;;;3.83;3.53;;;14.30;99.90;;;;;;5112499;28;20664;-89
2021/07/14 05:43:33;;;;;;;4.03;3.57;;;14.40;99.90;;;;;;5113360;28;20613;-89
2021/07/14 05:45:59;;;;;;;3.90;3.60;;;14.50;99.90;;;;;;5112274;28;20638;-90
2021/07/14 05:48:28;;;;;;;8.57;4.63;;;14.50;99.90;;;;;;5113131;28;20625;-89
2021/07/14 05:50:57;;;;;;;5.00;3.77;;;14.60;99.90;;;;;;5112993;28;20611;-89
2021/07/14 05:53:24;;;;;;;4.43;4.03;;;14.70;99.90;;;;;;5112945;28;20631;-89
2021/07/14 05:55:51;;;;;;;5.07;4.30;;;14.70;99.90;;;;;;5105111;28;20647;-89
2021/07/14 05:58:19;;;;;;;6.77;3.80;;;14.80;99.90;;;;;;5092958;28;20608;-89
2021/07/14 06:00:46;;;;;;;5.10;4.60;;;14.70;99.90;;;;;;5093784;28;20709;-89
2021/07/14 06:03:13;;;;;;;4.20;3.87;;;14.70;99.90;;;;;;5110794;28;20626;-89
2021/07/14 06:05:40;;;;;;;4.30;3.90;;;14.60;99.90;;;;;;5112625;28;20619;-89
2021/07/14 06:08:09;;;;;;;4.33;4.03;;;14.70;99.90;;;;;;5112619;28;20615;-90
2021/07/14 06:10:38;;;;;;;5.13;4.63;;;14.80;99.90;;;;;;5113292;28;20624;-89
2021/07/14 06:13:05;;;;;;;4.53;4.13;;;14.80;99.90;;;;;;5112831;28;20640;-89
2021/07/14 06:15:32;;;;;;;5.17;4.77;;;14.80;99.90;;;;;;5092796;28;20616;-89
2021/07/14 06:18:00;;;;;;;5.00;4.60;;;14.80;99.90;;;;;;5092215;28;20661;-88
2021/07/14 06:20:27;;;;;;;4.73;3.83;;;14.80;99.90;;;;;;5092286;28;20611;-89
2021/07/14 06:22:54;;;;;;;6.27;4.70;;;14.90;99.90;;;;;;5091020;28;21181;-90
2021/07/14 06:25:25;;;;;;;4.90;4.50;;;15.00;99.90;;;;;;5104886;28;20719;-89
2021/07/14 06:27:52;;;;;;;4.07;3.77;;;14.90;99.90;;;;;;5095010;28;21262;-88
2021/07/14 06:30:20;;;;;;;8.23;4.13;;;14.90;99.90;;;;;;5092133;28;20660;-89
2021/07/14 06:32:51;;;;;;;4.23;3.93;;;14.90;99.90;;;;;;5110462;28;20645;-88
2021/07/14 06:35:20;;;;;;;4.53;4.17;;;14.90;99.90;;;;;;5112449;28;20607;-89
2021/07/14 06:37:49;;;;;;;3.67;3.37;;;14.70;99.90;;;;;;5112115;28;20662;-88
2021/07/14 06:40:16;;;;;;;4.90;4.00;;;14.70;99.90;;;;;;5112286;28;21160;-88
2021/07/14 06:42:45;;;;;;;5.20;4.73;;;14.80;99.90;;;;;;5112633;28;21380;-88
2021/07/14 06:45:13;;;;;;;4.50;4.10;;;14.90;99.90;;;;;;5111634;28;20638;-88
2021/07/14 06:47:40;;;;;;;4.03;3.73;;;14.90;99.90;;;;;;5112081;28;20611;-89
2021/07/14 06:50:09;;;;;;;4.43;3.87;;;14.90;99.90;;;;;;5112011;28;21148;-89
2021/07/14 06:52:36;;;;;;;4.17;3.50;;;15.00;99.90;;;;;;5111556;28;20680;-89
2021/07/14 06:55:06;;;;;;;4.00;3.70;;;15.10;99.90;;;;;;5110546;28;21007;-89
2021/07/14 06:57:33;;;;;;;5.73;4.50;;;15.10;99.90;;;;;;5091882;28;20729;-88
2021/07/14 07:00:01;;;;;;;5.07;4.57;;;15.20;99.90;;;;;;5091075;28;20609;-89
2021/07/14 07:02:28;;;;;;;4.43;4.03;;;15.30;99.90;;;;;;5101323;28;20648;-88
2021/07/14 07:04:55;;;;;;;6.00;4.10;;;15.30;99.90;;;;;;5110034;28;20623;-88
2021/07/14 07:07:22;;;;;;;10.03;4.53;;;15.30;99.90;;;;;;5111279;28;20600;-88
2021/07/14 07:09:52;;;;;;;4.10;3.70;;;15.30;99.90;;;;;;5111665;28;20605;-89
2021/07/14 07:12:19;;;;;;;5.27;3.90;;;15.30;99.90;;;;;;5111213;28;21126;-89
2021/07/14 07:14:46;;;;;;;3.57;3.27;;;15.40;99.90;;;;;;5111393;28;21057;-88
2021/07/14 07:17:15;;;;;;;4.27;3.97;;;15.50;99.90;;;;;;5111444;28;20648;-88
2021/07/14 07:19:46;;;;;;;4.00;3.70;;;15.60;99.90;;;;;;5111816;28;20622;-88
2021/07/14 07:22:13;;;;;;;4.90;4.10;;;15.60;99.90;;;;;;5112962;28;21152;-88
2021/07/14 07:24:40;;;;;;;5.07;4.10;;;15.60;99.90;;;;;;5111353;28;21155;-87
2021/07/14 07:27:08;;;;;;;5.53;3.93;;;15.50;99.90;;;;;;5110779;28;20609;-88
2021/07/14 07:29:35;;;;;;;4.10;3.80;;;15.50;99.90;;;;;;5111151;28;20624;-88
2021/07/14 07:32:03;;;;;;;3.77;3.47;;;15.60;99.90;;;;;;5098609;28;20625;-88
2021/07/14 07:34:31;;;;;;;3.90;3.60;;;15.70;99.90;;;;;;5089858;28;20666;-89
2021/07/14 07:37:00;;;;;;;6.67;4.10;;;15.70;99.90;;;;;;5090654;28;20645;-88
2021/07/14 07:39:28;;;;;;;4.50;3.93;;;15.80;99.90;;;;;;5090211;28;20628;-89
2021/07/14 07:41:56;;;;;;;5.67;4.53;;;15.90;99.90;;;;;;5097911;28;20622;-89
2021/07/14 07:44:24;;;;;;;4.60;4.20;;;15.90;99.90;;;;;;5111241;28;20624;-88
2021/07/14 07:46:51;;;;;;;4.50;3.27;;;16.00;99.90;;;;;;5111063;28;20655;-89
2021/07/14 07:49:18;;;;;;;4.90;4.47;;;15.90;99.90;;;;;;5111286;28;20965;-89
2021/07/14 07:51:46;;;;;;;3.87;3.47;;;16.00;99.90;;;;;;5105821;28;20633;-89
2021/07/14 07:54:13;;;;;;;4.03;3.73;;;16.00;99.90;;;;;;5090113;28;20628;-89
2021/07/14 07:56:40;;;;;;;3.93;3.63;;;15.90;99.90;;;;;;5090565;28;20744;-89
2021/07/14 07:59:07;;;;;;;4.13;3.83;;;15.90;99.90;;;;;;5091280;28;20613;-89
2021/07/14 08:01:35;;;;;;;6.80;4.10;;;15.90;99.90;;;;;;5094078;28;21163;-89
2021/07/14 08:04:02;;;;;;;3.97;3.67;;;15.90;99.90;;;;;;5111545;28;20646;-89
2021/07/14 08:06:29;;;;;;;5.00;3.60;;;15.80;99.90;;;;;;5103256;28;20972;-89
2021/07/14 08:08:58;;;;;;;5.60;3.67;;;15.80;99.90;;;;;;5098927;28;20634;-89
2021/07/14 08:11:24;;;;;;;3.73;3.33;;;15.90;99.90;;;;;;5090468;28;20653;-89
2021/07/14 08:13:54;;;;;;;11.00;4.20;;;16.00;99.90;;;;;;5090332;28;20649;-89
2021/07/14 08:16:21;;;;;;;5.00;3.50;;;15.90;99.90;;;;;;5090157;28;20712;-89
2021/07/14 08:18:48;;;;;;;4.47;3.77;;;15.90;99.90;;;;;;5090146;28;20616;-89
2021/07/14 08:21:19;;;;;;;5.30;4.90;;;16.00;99.90;;;;;;5090357;28;20631;-89
2021/07/14 08:23:46;;;;;;;4.93;4.03;;;15.90;99.90;;;;;;5089792;28;20627;-89
2021/07/14 08:26:15;;;;;;;3.50;3.30;;;16.00;99.90;;;;;;5090340;28;20993;-89
2021/07/14 08:28:42;;;;;;;3.80;3.53;;;16.00;99.90;;;;;;5075863;28;21040;-89
2021/07/14 08:31:09;;;;;;;4.27;3.97;;;16.00;99.90;;;;;;5079886;28;21195;-89
2021/07/14 08:33:37;;;;;;;3.97;3.67;;;16.10;99.90;;;;;;5110247;28;20623;-90
2021/07/14 08:36:04;;;;;;;4.13;3.83;;;16.10;99.90;;;;;;5108930;28;20615;-89
2021/07/14 08:38:31;;;;;;;4.43;3.93;;;16.10;99.90;;;;;;5099972;28;20996;-88
2021/07/14 08:40:59;;;;;;;3.90;3.60;;;16.20;99.90;;;;;;5098713;28;20615;-89
2021/07/14 08:43:33;;;;;;;4.17;3.87;;;16.30;99.90;;;;;;5099625;28;20644;-90
2021/07/14 08:46:02;;;;;;;4.60;3.50;;;16.30;99.90;;;;;;5102188;28;20604;-90
2021/07/14 08:48:30;;;;;;;4.23;3.83;;;16.20;99.90;;;;;;5107386;28;21009;-89
2021/07/14 08:50:59;;;;;;;4.57;4.00;;;16.30;99.90;;;;;;5114164;28;20616;-90
2021/07/14 08:53:28;;;;;;;4.20;3.77;;;16.40;99.90;;;;;;5114138;28;20614;-90
2021/07/14 08:55:56;;;;;;;4.40;4.10;;;16.50;99.90;;;;;;5105430;28;20729;-89
2021/07/14 08:58:24;;;;;;;4.30;3.97;;;16.50;99.90;;;;;;5113415;28;20658;-89
2021/07/14 09:00:56;;;;;;;8.23;4.77;;;16.60;99.90;;;;;;5113868;28;20725;-89
2021/07/14 09:03:26;;;;;;;7.17;4.90;;;16.50;99.90;;;;;;5113056;28;20626;-90
2021/07/14 09:05:57;;;;;;;7.07;4.10;;;16.60;99.90;;;;;;5093753;28;20615;-89
2021/07/14 09:08:24;;;;;;;6.23;4.30;;;16.50;99.90;;;;;;5093837;28;20630;-89
2021/07/14 09:10:51;;;;;;;4.90;4.40;;;16.60;99.90;;;;;;5098749;28;20626;-89
2021/07/14 09:13:19;;;;;;;4.67;4.37;;;16.60;99.90;;;;;;5113748;28;20679;-90
2021/07/14 09:15:48;;;;;;;4.63;4.20;;;16.70;99.90;;;;;;5099995;28;20841;-90
2021/07/14 09:18:21;;;;;;;4.40;4.10;;;16.70;99.90;;;;;;5093287;28;20663;-90
2021/07/14 09:20:48;;;;;;;3.90;3.60;;;16.90;99.90;;;;;;5093551;28;20615;-90
2021/07/14 09:23:17;;;;;;;6.23;4.07;;;17.00;99.90;;;;;;5092769;28;21235;-90
2021/07/14 09:25:49;;;;;;;4.20;3.90;;;17.00;99.90;;;;;;5092837;28;20657;-90
2021/07/14 09:28:17;;;;;;;5.10;3.97;;;17.10;99.90;;;;;;5093226;28;20698;-91
2021/07/14 09:30:48;;;;;;;3.97;3.67;;;17.10;99.90;;;;;;5092019;28;21227;-90
2021/07/14 09:33:18;;;;;;;3.70;3.40;;;17.10;99.90;;;;;;5095932;28;20626;-89
2021/07/14 09:35:46;;;;;;;4.33;3.93;;;17.00;99.90;;;;;;5092873;28;20630;-90
2021/07/14 09:38:15;;;;;;;4.20;3.80;;;17.30;99.90;;;;;;5092759;28;20643;-90
2021/07/14 09:40:44;;;;;;;4.20;3.90;;;17.30;99.90;;;;;;5093187;28;20607;-90
2021/07/14 09:43:13;;;;;;;3.80;3.50;;;17.40;99.90;;;;;;5093019;28;20704;-90
2021/07/14 09:45:46;;;;;;;4.47;4.07;;;17.20;99.90;;;;;;5091623;28;20981;-89
2021/07/14 09:48:17;;;;;;;4.07;3.77;;;17.30;99.90;;;;;;5093249;28;21174;-90
2021/07/14 09:50:48;;;;;;;5.60;4.03;;;17.30;99.90;;;;;;5092696;28;20682;-89
2021/07/14 09:53:19;;;;;;;4.03;3.73;;;17.30;99.90;;;;;;5092338;28;20632;-88
2021/07/14 09:55:48;;;;;;;4.77;4.43;;;17.50;99.90;;;;;;5094731;28;20719;-89
2021/07/14 09:58:18;;;;;;;5.50;4.00;;;17.70;99.90;;;;;;5092320;28;21051;-89
2021/07/14 10:00:50;;;;;;;4.30;4.00;;;17.90;99.90;;;;;;5092517;28;20750;-89
2021/07/14 10:03:21;;;;;;;4.63;4.23;;;18.00;99.90;;;;;;5100355;28;20618;-89
2021/07/14 10:05:49;;;;;;;4.73;4.30;;;18.10;99.90;;;;;;5112565;28;20623;-89
2021/07/14 10:08:21;;;;;;;4.33;4.03;;;18.20;99.90;;;;;;5113377;28;20706;-88
2021/07/14 10:10:50;;;;;;;3.93;3.60;;;18.10;99.90;;;;;;5113346;28;20621;-88
2021/07/14 10:13:21;;;;;;;4.80;3.97;;;18.20;99.90;;;;;;5112943;28;20635;-88
2021/07/14 10:16:01;;;;;;;3.70;3.40;;;18.40;99.90;;;;;;5098576;28;20736;-89
2021/07/14 10:18:32;;;;;;;3.83;3.43;;;18.50;99.90;;;;;;5092513;28;20651;-88
2021/07/14 10:21:01;;;;;;;4.10;3.80;;;18.60;99.90;;;;;;5093335;28;20605;-90
2021/07/14 10:23:30;;;;;;;3.63;3.33;;;18.80;99.90;;;;;;5092494;28;20621;-90
2021/07/14 10:26:00;;;;;;;4.03;3.73;;;18.90;99.90;;;;;;5092042;28;20624;-90
2021/07/14 10:28:29;;;;;;;5.20;3.40;;;19.00;99.90;;;;;;5092605;28;20625;-91
2021/07/14 10:30:57;;;;;;;3.20;3.00;;;19.20;99.90;;;;;;5095495;28;20697;-89
2021/07/14 10:33:27;;;;;;;3.20;3.00;;;19.60;99.90;;;;;;5112875;28;20637;-89
2021/07/14 10:36:03;;;;;;;3.50;3.30;;;19.70;98.50;;;;;;5112359;28;20635;-90
2021/07/14 10:38:30;;;;;;;3.30;3.10;;;19.80;99.30;;;;;;5112893;28;21017;-90
2021/07/14 10:40:58;;;;;;;3.70;3.40;;;20.00;99.80;;;;;;5112506;28;20726;-90
2021/07/14 10:43:27;;;;;;;4.30;3.90;;;20.20;98.40;;;;;;5112863;28;20623;-91
2021/07/14 10:45:54;;;;;;;3.70;3.43;;;20.20;96.90;;;;;;5111985;28;20608;-91
2021/07/14 10:48:25;;;;;;;2.93;2.67;;;20.00;97.40;;;;;;5102438;28;20612;-90
2021/07/14 10:50:55;;;;;;;3.53;3.27;;;20.20;97.20;;;;;;5091991;28;20648;-89
2021/07/14 10:53:24;;;;;;;3.40;3.10;;;20.40;97.50;;;;;;5091354;28;20619;-89
2021/07/14 10:55:55;;;;;;;2.73;2.53;;;20.50;97.20;;;;;;5099108;28;21054;-92
2021/07/14 10:58:27;;;;;;;3.37;3.07;;;20.90;96.50;;;;;;5111338;28;20680;-90
2021/07/14 11:00:58;;;;;;;2.80;2.60;;;21.00;96.00;;;;;;5112252;28;20659;-90
2021/07/14 11:03:46;;;;;;;3.60;2.37;;;21.20;96.00;;;;;;5111259;28;21351;-88
2021/07/14 11:06:15;;;;;;;2.00;1.90;;;21.00;93.80;;;;;;5105065;28;20681;-89
2021/07/14 11:08:47;;;;;;;2.30;2.20;;;21.10;94.40;;;;;;5090565;28;20648;-91
2021/07/14 11:11:17;;;;;;;4.90;2.00;;;21.40;94.50;;;;;;5087768;28;21011;-91
2021/07/14 11:13:44;;;;;;;2.40;2.30;;;21.70;94.10;;;;;;5111302;28;20625;-90
2021/07/14 11:16:34;;;;;;;2.90;2.40;;;21.50;91.40;;;;;;5101719;28;20622;-90
2021/07/14 11:19:08;;;;;;;2.30;2.10;;;21.80;93.60;;;;;;5111003;28;20663;-89
2021/07/14 11:22:02;;;;;;;1.93;1.50;;;21.90;93.80;;;;;;5111610;28;20624;-91
2021/07/14 11:25:00;;;;;;;2.00;1.90;;;22.30;92.60;;;;;;5110850;28;20656;-91
2021/07/14 11:27:48;;;;;;;1.73;1.63;;;22.60;90.50;;;;;;5008292;28;20648;-89
2021/07/14 11:30:28;;;;;;;2.20;1.90;;;22.80;90.00;;;;;;4989420;28;20733;-87
2021/07/14 11:33:05;;;;;;;1.63;1.53;;;22.60;90.00;;;;;;5111400;28;20931;-89
2021/07/14 11:35:55;;;;;;;1.70;1.60;;;22.30;90.50;;;;;;5108302;28;21005;-87
2021/07/14 11:38:26;;;;;;;2.50;1.83;;;22.10;89.50;;;;;;5077860;28;20762;-88
2021/07/14 11:40:57;;;;;;;1.97;1.87;;;21.90;87.30;;;;;;5086146;28;20646;-89
2021/07/14 11:43:40;;;;;;;2.40;1.60;;;22.00;87.60;;;;;;5090251;28;20689;-86
2021/07/14 11:46:10;;;;;;;2.10;1.87;;;22.10;90.70;;;;;;5090506;28;20943;-89
2021/07/14 11:49:02;;;;;;;1.57;1.47;;;22.20;90.10;;;;;;5091600;28;20679;-89
2021/07/14 11:51:33;;;;;;;1.43;1.33;;;22.30;87.60;;;;;;5088404;28;20616;-90
2021/07/14 11:54:20;;;;;;;1.40;1.33;;;22.30;86.50;;;;;;5090765;28;20624;-89
2021/07/14 11:56:52;;;;;;;2.53;1.80;;;22.40;86.40;;;;;;5100795;28;21167;-88
2021/07/14 11:59:25;;;;;;;1.60;1.50;;;22.00;88.70;;;;;;5112558;28;21072;-89
2021/07/14 12:02:07;;;;;;;2.53;2.33;;;22.40;89.70;;;;;;5105865;28;20759;-86
2021/07/14 12:04:41;;;;;;;1.17;1.10;;;22.60;83.20;;;;;;5090622;28;21041;-90
2021/07/14 12:07:14;;;;;;;1.80;1.70;;;22.20;85.30;;;;;;5090579;28;20697;-89
2021/07/14 12:09:49;;;;;;;1.70;1.60;;;22.40;88.90;;;;;;5094448;28;20629;-89
2021/07/14 12:12:24;;;;;;;2.00;1.70;;;22.40;87.80;;;;;;5071293;28;20652;-91
2021/07/14 12:14:52;;;;;;;1.70;1.60;;;22.80;85.60;;;;;;5075087;28;21008;-89
2021/07/14 12:17:21;;;;;;;1.57;1.47;;;22.80;85.70;;;;;;5089746;28;20605;-88
2021/07/14 12:19:50;;;;;;;1.83;1.73;;;22.90;86.80;;;;;;5091815;28;20611;-88
2021/07/14 12:22:19;;;;;;;3.53;1.50;;;22.60;84.90;;;;;;5094464;28;20614;-88
2021/07/14 12:24:49;;;;;;;1.83;1.73;;;22.70;83.20;;;;;;5094033;28;20620;-90
2021/07/14 12:27:20;;;;;;;1.50;1.40;;;23.10;88.70;;;;;;5094432;28;20620;-87
2021/07/14 12:29:54;;;;;;;1.80;1.70;;;23.10;84.40;;;;;;5094554;28;20681;-90
2021/07/14 12:32:46;;;;;;;1.50;1.30;;;23.20;86.30;;;;;;5090813;28;21163;-89
2021/07/14 12:35:18;;;;;;;2.33;1.90;;;23.70;83.10;;;;;;5072530;28;21090;-88
2021/07/14 12:37:47;;;;;;;2.10;1.87;;;23.80;80.60;;;;;;5094474;28;21055;-88
2021/07/14 12:40:23;;;;;;;1.40;1.30;;;23.00;81.30;;;;;;5093853;28;20623;-89
2021/07/14 12:42:51;;;;;;;2.17;1.70;;;23.00;84.30;;;;;;5094381;28;20620;-88
2021/07/14 12:45:24;;;;;;;1.60;1.50;;;23.60;84.60;;;;;;5093630;28;20630;-88
2021/07/14 12:47:51;;;;;;;1.67;1.57;;;23.50;80.30;;;;;;5088242;28;20651;-87
2021/07/14 12:50:21;;;;;;;1.63;1.53;;;23.60;81.30;;;;;;5094133;28;20630;-88
2021/07/14 12:52:53;;;;;;;2.13;1.50;;;23.50;80.90;;;;;;5094230;28;20947;-88
2021/07/14 12:55:22;;;;;;;2.40;1.83;;;23.40;85.60;;;;;;5096859;28;20627;-89
2021/07/14 12:57:50;;;;;;;1.77;1.67;;;23.50;85.90;;;;;;5114177;28;20692;-89
2021/07/14 13:00:18;;;;;;;1.60;1.50;;;23.70;83.70;;;;;;5114052;28;20790;-88
2021/07/14 13:02:51;;;;;;;1.57;1.47;;;23.50;81.70;;;;;;5102643;28;20640;-89
2021/07/14 13:05:19;;;;;;;1.23;1.00;;;23.00;81.20;;;;;;5089672;28;20703;-89
2021/07/14 13:07:49;;;;;;;2.30;1.30;;;22.80;83.10;;;;;;5073510;28;20945;-88